Astana, Kazakhstan
Current Conditions -  °F | °C
As of 2:00 PM on Monday 24 Nov 2014 (Local Time) from UACC Reporting Station
Clear Clear  
Wind Chill: -33°   Ceiling: Unl
Heat Index: -13°   Visibility: 6mi
Dew Point: -20°   Wind: 11mph
Humidity: 70%   Direction: 30°NNE
Pressure: 30.27"   Gusts: NA
Location:  51.17°N, 71.5°E
Report Text: UACC 240800Z 03005MPS CAVOK M25/M29 Q1025 R04/8/0060 NOSIG RMKQFE737/0983
Loading
Personal Weather Stations






























Interactive Weather Map New forecast layout! Learn more

10-Day Weather Forecast

Advertisements
Track Severe Weather on mobile